Time;durP1;ratioP1;P1;durP2;ratioP2;P2;SDS_P1;SDS_P2;PMS_P1;PMS_P2;Temp;Humidity;BMP_temperature;BMP_pressure;BME280_temperature;BME280_humidity;BME280_pressure;Samples;Min_cycle;Max_cycle;Signal;HPM_P1;HPM_P2
2022/03/10 00:01:30;;;;;;;12.02;6.40;;;;;;;;;;5094204;28;20462;-47
2022/03/10 00:03:56;;;;;;;18.13;7.45;;;;;;;;;;5093864;28;20027;-47
2022/03/10 00:06:22;;;;;;;13.50;6.30;;;;;;;;;;5092911;28;20020;-47
2022/03/10 00:08:48;;;;;;;13.82;7.07;;;;;;;;;;5092508;28;20031;-47
2022/03/10 00:11:14;;;;;;;14.85;7.13;;;;;;;;;;5085562;28;20026;-49
2022/03/10 00:13:40;;;;;;;19.40;7.95;;;;;;;;;;5088828;28;20024;-48
2022/03/10 00:16:06;;;;;;;20.00;7.00;;;;;;;;;;5093999;28;20181;-46
2022/03/10 00:18:32;;;;;;;17.10;6.20;;;;;;;;;;5093709;28;20552;-49
2022/03/10 00:20:58;;;;;;;15.00;7.05;;;;;;;;;;5085399;28;20086;-47
2022/03/10 00:23:24;;;;;;;13.90;6.85;;;;;;;;;;5088605;28;20476;-47
2022/03/10 00:25:50;;;;;;;13.52;6.55;;;;;;;;;;5088288;28;20060;-48
2022/03/10 00:28:18;;;;;;;11.70;6.72;;;;;;;;;;5086402;28;20033;-48
2022/03/10 00:30:44;;;;;;;12.95;5.80;;;;;;;;;;5084028;28;20031;-47
2022/03/10 00:33:09;;;;;;;15.43;6.82;;;;;;;;;;5088961;28;20020;-46
2022/03/10 00:35:35;;;;;;;14.70;7.75;;;;;;;;;;5093545;28;20073;-48
2022/03/10 00:38:01;;;;;;;18.70;7.90;;;;;;;;;;5086033;28;20115;-47
2022/03/10 00:40:28;;;;;;;16.25;8.00;;;;;;;;;;5093239;28;20468;-47
2022/03/10 00:42:54;;;;;;;19.02;8.23;;;;;;;;;;5093222;28;20036;-48
2022/03/10 00:45:20;;;;;;;18.08;8.20;;;;;;;;;;5093479;28;20069;-48
2022/03/10 00:47:46;;;;;;;16.27;8.00;;;;;;;;;;5092641;28;20464;-52
2022/03/10 00:50:12;;;;;;;17.25;8.68;;;;;;;;;;5092786;28;20055;-47
2022/03/10 00:52:42;;;;;;;17.52;8.60;;;;;;;;;;5085376;28;20135;-47
2022/03/10 00:55:08;;;;;;;14.65;7.80;;;;;;;;;;5083378;28;20039;-47
2022/03/10 00:57:34;;;;;;;19.85;8.70;;;;;;;;;;5080270;28;20020;-45
2022/03/10 01:00:00;;;;;;;13.93;7.55;;;;;;;;;;5093221;28;20020;-45
2022/03/10 01:02:26;;;;;;;16.65;7.93;;;;;;;;;;5092722;28;20099;-46
2022/03/10 01:04:52;;;;;;;16.70;8.20;;;;;;;;;;5082772;28;20399;-47
2022/03/10 01:07:18;;;;;;;16.23;7.20;;;;;;;;;;5090871;28;20020;-47
2022/03/10 01:09:44;;;;;;;12.15;7.05;;;;;;;;;;5093007;28;20027;-46
2022/03/10 01:12:10;;;;;;;13.10;7.25;;;;;;;;;;5084450;28;20020;-45
2022/03/10 01:14:36;;;;;;;10.52;5.82;;;;;;;;;;5092724;28;20036;-45
2022/03/10 01:17:02;;;;;;;15.00;6.07;;;;;;;;;;5092924;28;20074;-46
2022/03/10 01:19:29;;;;;;;12.05;6.10;;;;;;;;;;5092269;28;20085;-46
2022/03/10 01:21:55;;;;;;;13.60;6.75;;;;;;;;;;5091519;28;20075;-47
2022/03/10 01:24:21;;;;;;;15.18;7.05;;;;;;;;;;5082886;28;20024;-45
2022/03/10 01:26:47;;;;;;;19.58;8.77;;;;;;;;;;5087143;28;20052;-45
2022/03/10 01:29:13;;;;;;;14.50;7.93;;;;;;;;;;5092866;28;20090;-47
2022/03/10 01:31:39;;;;;;;21.23;9.07;;;;;;;;;;5092162;28;20024;-47
2022/03/10 01:34:05;;;;;;;20.63;8.77;;;;;;;;;;5092429;28;20089;-46
2022/03/10 01:36:31;;;;;;;22.00;10.23;;;;;;;;;;5088736;28;20028;-46
2022/03/10 01:38:57;;;;;;;25.65;9.88;;;;;;;;;;5071783;28;20128;-45
2022/03/10 01:41:23;;;;;;;21.52;9.70;;;;;;;;;;5089002;28;20056;-46
2022/03/10 01:43:56;;;;;;;17.27;9.15;;;;;;;;;;5086149;28;20097;-46
2022/03/10 01:46:22;;;;;;;19.00;7.97;;;;;;;;;;5092156;28;20115;-46
2022/03/10 01:48:48;;;;;;;16.75;8.45;;;;;;;;;;5092332;28;20555;-46
2022/03/10 01:51:14;;;;;;;10.98;5.90;;;;;;;;;;5091764;28;20065;-47
2022/03/10 01:53:41;;;;;;;17.13;7.22;;;;;;;;;;5084391;28;20048;-48
2022/03/10 01:56:07;;;;;;;15.75;6.10;;;;;;;;;;5086276;28;20108;-46
2022/03/10 01:58:34;;;;;;;16.23;6.72;;;;;;;;;;5092406;28;20027;-47
2022/03/10 02:01:00;;;;;;;13.55;6.65;;;;;;;;;;5085464;28;20443;-46
2022/03/10 02:03:26;;;;;;;13.48;6.18;;;;;;;;;;5092371;28;20028;-48
2022/03/10 02:05:53;;;;;;;14.52;6.90;;;;;;;;;;5091693;28;20020;-50
2022/03/10 02:11:05;;;;;;;16.50;6.95;;;;;;;;;;5076918;28;20089;-46
2022/03/10 02:13:31;;;;;;;17.38;7.72;;;;;;;;;;5091189;28;20030;-47
2022/03/10 02:18:42;;;;;;;17.00;7.57;;;;;;;;;;5092020;28;20552;-46
2022/03/10 02:21:08;;;;;;;12.63;6.68;;;;;;;;;;5091580;28;20028;-45
2022/03/10 02:23:34;;;;;;;14.23;6.22;;;;;;;;;;5092082;28;20467;-47
2022/03/10 02:26:00;;;;;;;13.23;6.53;;;;;;;;;;5091758;28;20043;-46
2022/03/10 02:28:27;;;;;;;16.50;7.28;;;;;;;;;;5083297;28;20024;-46
2022/03/10 02:30:53;;;;;;;14.65;6.93;;;;;;;;;;5086880;28;20436;-46
2022/03/10 02:33:19;;;;;;;15.35;7.28;;;;;;;;;;5091743;28;20035;-46
2022/03/10 02:35:46;;;;;;;16.42;8.07;;;;;;;;;;5085380;28;20102;-46
2022/03/10 02:38:18;;;;;;;17.95;7.45;;;;;;;;;;5076475;28;20039;-46
2022/03/10 02:40:48;;;;;;;18.67;8.05;;;;;;;;;;5081579;28;20085;-46
2022/03/10 02:43:14;;;;;;;14.73;7.32;;;;;;;;;;5085307;28;20047;-46
2022/03/10 02:45:40;;;;;;;17.40;7.50;;;;;;;;;;5073955;28;20032;-46
2022/03/10 02:48:06;;;;;;;14.73;6.90;;;;;;;;;;5090563;28;20031;-47
2022/03/10 02:50:32;;;;;;;19.50;8.45;;;;;;;;;;5088920;28;21710;-49
2022/03/10 02:52:58;;;;;;;18.70;7.75;;;;;;;;;;5087007;28;20044;-49
2022/03/10 02:55:24;;;;;;;15.13;7.22;;;;;;;;;;5087992;28;20079;-47
2022/03/10 02:57:50;;;;;;;16.23;7.75;;;;;;;;;;5086762;28;20535;-49
2022/03/10 03:00:17;;;;;;;18.90;8.77;;;;;;;;;;5082230;28;20036;-47
2022/03/10 03:02:43;;;;;;;27.02;11.35;;;;;;;;;;5081571;28;20635;-48
2022/03/10 03:05:12;;;;;;;24.10;11.45;;;;;;;;;;5088542;28;20081;-48
2022/03/10 03:07:38;;;;;;;28.23;12.15;;;;;;;;;;5093531;28;20112;-47
2022/03/10 03:10:04;;;;;;;29.02;11.90;;;;;;;;;;5090816;28;20028;-47
2022/03/10 03:12:31;;;;;;;27.80;11.75;;;;;;;;;;5091702;28;20057;-47
2022/03/10 03:14:57;;;;;;;24.48;11.93;;;;;;;;;;5095265;28;20043;-47
2022/03/10 03:17:24;;;;;;;25.83;11.27;;;;;;;;;;5094956;28;20055;-47
2022/03/10 03:19:50;;;;;;;26.30;12.43;;;;;;;;;;5091165;28;20020;-51
2022/03/10 03:22:16;;;;;;;28.02;11.55;;;;;;;;;;5094265;28;20027;-47
2022/03/10 03:24:44;;;;;;;23.25;10.73;;;;;;;;;;5090881;28;20539;-47
2022/03/10 03:27:10;;;;;;;26.45;11.40;;;;;;;;;;5093699;28;20039;-47
2022/03/10 03:29:36;;;;;;;20.92;10.63;;;;;;;;;;5085995;28;20028;-47
2022/03/10 03:32:02;;;;;;;21.67;8.88;;;;;;;;;;5088359;28;20035;-47
2022/03/10 03:34:28;;;;;;;31.40;12.18;;;;;;;;;;5094534;28;20099;-47
2022/03/10 03:36:54;;;;;;;27.50;12.48;;;;;;;;;;5079883;28;20070;-47
2022/03/10 03:39:20;;;;;;;27.92;11.48;;;;;;;;;;5088062;28;20032;-48
2022/03/10 03:41:46;;;;;;;23.17;10.65;;;;;;;;;;5093683;28;20121;-52
2022/03/10 03:44:12;;;;;;;27.10;11.70;;;;;;;;;;5090122;28;20028;-47
2022/03/10 03:46:39;;;;;;;30.63;11.20;;;;;;;;;;5094672;28;20527;-48
2022/03/10 03:49:05;;;;;;;27.42;11.65;;;;;;;;;;5094352;28;20342;-51
2022/03/10 03:51:31;;;;;;;30.25;12.32;;;;;;;;;;5092602;28;20111;-50
2022/03/10 03:53:57;;;;;;;26.75;12.80;;;;;;;;;;5084349;28;20457;-49
2022/03/10 03:56:24;;;;;;;29.90;11.57;;;;;;;;;;5085689;28;20067;-47
2022/03/10 03:58:50;;;;;;;28.30;12.25;;;;;;;;;;5093444;28;20031;-48
2022/03/10 04:01:16;;;;;;;28.73;12.95;;;;;;;;;;5080472;28;20028;-47
2022/03/10 04:03:42;;;;;;;31.20;12.15;;;;;;;;;;5083120;28;20063;-46
2022/03/10 04:06:08;;;;;;;27.50;12.73;;;;;;;;;;5084849;28;20024;-47
2022/03/10 04:08:35;;;;;;;26.48;12.05;;;;;;;;;;5086935;28;20448;-47
2022/03/10 04:11:01;;;;;;;34.25;12.10;;;;;;;;;;5089880;28;20474;-47
2022/03/10 04:13:27;;;;;;;27.67;13.48;;;;;;;;;;5089277;28;20089;-47
2022/03/10 04:15:53;;;;;;;29.08;12.98;;;;;;;;;;5080396;28;20524;-47
2022/03/10 04:18:19;;;;;;;27.42;11.65;;;;;;;;;;5086213;28;20097;-47
2022/03/10 04:20:46;;;;;;;32.67;13.85;;;;;;;;;;5084205;28;20043;-47
2022/03/10 04:23:12;;;;;;;22.98;11.35;;;;;;;;;;5090398;28;20491;-48
2022/03/10 04:25:38;;;;;;;29.80;12.75;;;;;;;;;;5081386;28;20028;-50
2022/03/10 04:28:04;;;;;;;28.92;12.30;;;;;;;;;;5087048;28;20043;-47
2022/03/10 04:30:32;;;;;;;34.72;13.40;;;;;;;;;;5093762;28;20028;-48
2022/03/10 04:32:59;;;;;;;27.02;11.80;;;;;;;;;;5090453;28;20016;-47
2022/03/10 04:35:25;;;;;;;31.08;12.07;;;;;;;;;;5093387;28;20149;-48
2022/03/10 04:37:52;;;;;;;36.97;12.77;;;;;;;;;;5085792;28;20070;-47
2022/03/10 04:40:19;;;;;;;28.38;12.35;;;;;;;;;;5091741;28;20029;-47
2022/03/10 04:42:45;;;;;;;28.83;11.85;;;;;;;;;;5088332;28;20027;-47
2022/03/10 04:45:11;;;;;;;29.73;13.57;;;;;;;;;;5079976;28;20028;-47
2022/03/10 04:47:37;;;;;;;33.33;12.63;;;;;;;;;;5086127;28;20016;-48
2022/03/10 04:50:05;;;;;;;31.42;11.95;;;;;;;;;;5093264;28;20456;-47
2022/03/10 04:52:31;;;;;;;33.67;14.07;;;;;;;;;;5083541;28;20047;-47
2022/03/10 04:54:57;;;;;;;34.28;13.75;;;;;;;;;;5087950;28;20452;-47
2022/03/10 04:57:23;;;;;;;33.13;12.88;;;;;;;;;;5089494;28;20039;-47
2022/03/10 04:59:49;;;;;;;34.50;14.32;;;;;;;;;;5081812;28;20024;-47
2022/03/10 05:02:15;;;;;;;29.90;13.55;;;;;;;;;;5082978;28;20040;-47
2022/03/10 05:04:41;;;;;;;33.78;13.57;;;;;;;;;;5083881;28;20062;-47
2022/03/10 05:07:07;;;;;;;34.75;14.38;;;;;;;;;;5085767;28;20024;-51
2022/03/10 05:09:33;;;;;;;35.13;13.75;;;;;;;;;;5083687;28;20031;-48
2022/03/10 05:12:00;;;;;;;32.40;14.80;;;;;;;;;;5087283;28;20116;-46
2022/03/10 05:14:26;;;;;;;29.55;13.50;;;;;;;;;;5089727;28;20039;-48
2022/03/10 05:16:52;;;;;;;33.85;14.35;;;;;;;;;;5089741;28;20421;-48
2022/03/10 05:19:18;;;;;;;33.03;14.35;;;;;;;;;;5081178;28;20107;-47
2022/03/10 05:21:44;;;;;;;33.50;14.23;;;;;;;;;;5079690;28;20362;-47
2022/03/10 05:24:12;;;;;;;34.78;15.05;;;;;;;;;;5087838;28;20091;-47
2022/03/10 05:26:38;;;;;;;31.88;13.68;;;;;;;;;;5080110;28;20073;-47
2022/03/10 05:29:04;;;;;;;41.05;15.85;;;;;;;;;;5084186;28;20027;-47
2022/03/10 05:31:30;;;;;;;34.63;15.38;;;;;;;;;;5077011;28;20373;-50
2022/03/10 05:33:56;;;;;;;34.33;14.63;;;;;;;;;;5085147;28;20161;-47
2022/03/10 05:36:22;;;;;;;32.63;14.60;;;;;;;;;;5083358;28;20047;-47
2022/03/10 05:38:48;;;;;;;31.75;14.15;;;;;;;;;;5083369;28;20032;-47
2022/03/10 05:41:14;;;;;;;30.08;13.60;;;;;;;;;;5085576;28;20044;-46
2022/03/10 05:43:40;;;;;;;30.42;13.38;;;;;;;;;;5078276;28;20069;-47
2022/03/10 05:46:06;;;;;;;36.40;14.02;;;;;;;;;;5085439;28;20430;-47
2022/03/10 05:48:32;;;;;;;35.55;13.50;;;;;;;;;;5077232;28;20024;-49
2022/03/10 05:50:58;;;;;;;32.25;13.88;;;;;;;;;;5077487;28;20090;-48
2022/03/10 05:53:24;;;;;;;29.02;13.52;;;;;;;;;;5085267;28;20105;-47
2022/03/10 05:55:50;;;;;;;33.22;15.07;;;;;;;;;;5078949;28;20517;-47
2022/03/10 05:58:16;;;;;;;34.17;13.98;;;;;;;;;;5085668;28;20437;-47
2022/03/10 06:00:42;;;;;;;34.95;13.60;;;;;;;;;;5081014;28;20106;-48
2022/03/10 06:03:08;;;;;;;34.15;15.20;;;;;;;;;;5079271;28;20410;-48
2022/03/10 06:05:34;;;;;;;32.47;14.38;;;;;;;;;;5081328;28;20170;-47
2022/03/10 06:08:00;;;;;;;41.03;16.02;;;;;;;;;;5079816;28;20091;-48
2022/03/10 06:10:26;;;;;;;36.97;14.73;;;;;;;;;;5080158;28;20032;-47
2022/03/10 06:12:52;;;;;;;34.33;15.00;;;;;;;;;;5083437;28;20023;-48
2022/03/10 06:15:19;;;;;;;35.05;15.63;;;;;;;;;;5084467;28;20036;-46
2022/03/10 06:17:45;;;;;;;33.60;14.68;;;;;;;;;;5083889;28;20021;-49
2022/03/10 06:20:11;;;;;;;38.67;15.07;;;;;;;;;;5083685;28;20016;-50
2022/03/10 06:22:37;;;;;;;35.88;14.88;;;;;;;;;;5080376;28;20020;-50
2022/03/10 06:25:04;;;;;;;35.13;14.80;;;;;;;;;;5084591;28;20020;-47
2022/03/10 06:27:30;;;;;;;30.70;12.82;;;;;;;;;;5073115;28;20041;-48
2022/03/10 06:29:56;;;;;;;38.17;15.65;;;;;;;;;;5084586;28;20077;-46
2022/03/10 06:32:22;;;;;;;37.63;15.07;;;;;;;;;;5092420;28;20543;-47
2022/03/10 06:34:49;;;;;;;37.22;14.77;;;;;;;;;;5085414;28;20043;-46
2022/03/10 06:37:15;;;;;;;36.03;15.68;;;;;;;;;;5090553;28;20496;-47
2022/03/10 06:39:42;;;;;;;38.75;13.90;;;;;;;;;;5079974;28;20545;-46
2022/03/10 06:42:09;;;;;;;36.35;14.25;;;;;;;;;;5087370;28;20157;-47
2022/03/10 06:44:36;;;;;;;33.28;14.35;;;;;;;;;;5086855;28;20048;-46
2022/03/10 06:47:03;;;;;;;35.85;14.82;;;;;;;;;;5087846;28;20027;-48
2022/03/10 06:49:28;;;;;;;37.30;15.18;;;;;;;;;;5083130;28;20180;-47
2022/03/10 06:51:54;;;;;;;39.58;15.45;;;;;;;;;;5082172;28;20044;-49
2022/03/10 06:54:21;;;;;;;36.58;14.45;;;;;;;;;;5079012;28;20039;-48
2022/03/10 06:56:46;;;;;;;38.83;14.27;;;;;;;;;;5082750;28;20033;-48
2022/03/10 06:59:12;;;;;;;37.60;15.25;;;;;;;;;;5086248;28;20038;-48
2022/03/10 07:01:39;;;;;;;40.70;16.67;;;;;;;;;;5082780;28;20593;-46
2022/03/10 07:04:05;;;;;;;39.97;16.63;;;;;;;;;;5087722;28;20641;-46
2022/03/10 07:06:31;;;;;;;38.17;15.93;;;;;;;;;;5083753;28;20449;-48
2022/03/10 07:08:57;;;;;;;48.88;17.70;;;;;;;;;;5089786;28;20024;-47
2022/03/10 07:11:25;;;;;;;42.45;15.05;;;;;;;;;;5088493;28;20032;-47
2022/03/10 07:13:51;;;;;;;35.28;16.25;;;;;;;;;;5092742;28;20120;-48
2022/03/10 07:16:18;;;;;;;39.83;16.02;;;;;;;;;;5078442;28;20028;-48
2022/03/10 07:18:50;;;;;;;37.67;16.20;;;;;;;;;;5089782;28;20070;-47
2022/03/10 07:21:16;;;;;;;36.35;16.27;;;;;;;;;;5091268;28;20028;-48
2022/03/10 07:23:42;;;;;;;42.20;15.85;;;;;;;;;;5085721;28;20055;-49
2022/03/10 07:26:10;;;;;;;37.83;17.17;;;;;;;;;;5089597;28;20724;-47
2022/03/10 07:28:36;;;;;;;37.63;16.15;;;;;;;;;;5082548;28;20048;-46
2022/03/10 07:31:02;;;;;;;34.40;15.13;;;;;;;;;;5093678;28;20020;-47
2022/03/10 07:33:28;;;;;;;39.35;16.50;;;;;;;;;;5087455;28;20032;-47
2022/03/10 07:35:54;;;;;;;32.90;14.68;;;;;;;;;;5094534;28;20032;-49
2022/03/10 07:38:20;;;;;;;38.38;16.73;;;;;;;;;;5086282;28;20028;-48
2022/03/10 07:40:46;;;;;;;37.42;15.95;;;;;;;;;;5089754;28;20057;-47
2022/03/10 07:43:12;;;;;;;37.53;15.88;;;;;;;;;;5084795;28;20085;-47
2022/03/10 07:45:38;;;;;;;38.05;14.98;;;;;;;;;;5083979;28;20025;-49
2022/03/10 07:48:04;;;;;;;34.60;16.02;;;;;;;;;;5088589;28;20036;-51
2022/03/10 07:50:30;;;;;;;32.95;14.82;;;;;;;;;;5079011;28;20040;-47
2022/03/10 07:52:56;;;;;;;38.72;15.07;;;;;;;;;;5083912;28;20039;-47
2022/03/10 07:55:22;;;;;;;34.42;15.18;;;;;;;;;;5090746;28;20527;-47
2022/03/10 07:57:49;;;;;;;41.92;15.43;;;;;;;;;;5091477;28;20174;-48
2022/03/10 08:00:15;;;;;;;34.10;15.05;;;;;;;;;;5081356;28;20071;-48
2022/03/10 08:02:41;;;;;;;36.78;14.00;;;;;;;;;;5088424;28;20130;-49
2022/03/10 08:05:07;;;;;;;37.58;16.10;;;;;;;;;;5080141;28;20103;-47
2022/03/10 08:07:34;;;;;;;32.50;13.88;;;;;;;;;;5085413;28;20031;-47
2022/03/10 08:10:00;;;;;;;35.42;15.65;;;;;;;;;;5084479;28;20023;-48
2022/03/10 08:12:27;;;;;;;39.60;15.35;;;;;;;;;;5089772;28;20099;-47
2022/03/10 08:14:53;;;;;;;42.08;16.50;;;;;;;;;;5092070;28;20047;-47
2022/03/10 08:17:19;;;;;;;32.10;13.57;;;;;;;;;;5089928;28;20036;-47
2022/03/10 08:19:45;;;;;;;31.88;13.57;;;;;;;;;;5085493;28;20028;-48
2022/03/10 08:22:11;;;;;;;35.25;14.57;;;;;;;;;;5087213;28;20495;-51
2022/03/10 08:24:41;;;;;;;43.78;15.00;;;;;;;;;;5083021;28;20472;-47
2022/03/10 08:27:07;;;;;;;34.28;15.98;;;;;;;;;;5076061;28;20162;-52
2022/03/10 08:29:33;;;;;;;34.65;14.23;;;;;;;;;;5091128;28;20077;-49
2022/03/10 08:31:59;;;;;;;33.58;13.77;;;;;;;;;;5086994;28;20619;-50
2022/03/10 08:34:25;;;;;;;32.70;13.80;;;;;;;;;;5089650;28;20442;-49
2022/03/10 08:36:51;;;;;;;31.08;12.80;;;;;;;;;;5081784;28;20031;-48
2022/03/10 08:39:17;;;;;;;31.90;13.60;;;;;;;;;;5089818;28;20055;-50
2022/03/10 08:41:44;;;;;;;30.58;12.55;;;;;;;;;;5089271;28;20036;-49
2022/03/10 08:44:12;;;;;;;28.60;13.00;;;;;;;;;;5084904;28;20068;-48
2022/03/10 08:46:38;;;;;;;33.33;13.88;;;;;;;;;;5083351;28;20028;-47
2022/03/10 08:49:04;;;;;;;31.48;12.75;;;;;;;;;;5078184;28;20043;-49
2022/03/10 08:51:30;;;;;;;28.42;13.00;;;;;;;;;;5086629;28;20760;-49
2022/03/10 08:53:56;;;;;;;31.33;13.32;;;;;;;;;;5085052;28;20020;-49
2022/03/10 08:56:22;;;;;;;25.95;12.60;;;;;;;;;;5091352;28;20590;-47
2022/03/10 08:58:48;;;;;;;27.25;12.55;;;;;;;;;;5087036;28;20024;-47
2022/03/10 09:01:14;;;;;;;31.25;12.43;;;;;;;;;;5079277;28;20074;-50
2022/03/10 09:03:40;;;;;;;25.02;11.40;;;;;;;;;;5089408;28;20036;-48
2022/03/10 09:06:07;;;;;;;29.02;12.25;;;;;;;;;;5082777;28;20103;-48
2022/03/10 09:08:33;;;;;;;27.02;12.15;;;;;;;;;;5087788;28;20038;-47
2022/03/10 09:11:00;;;;;;;30.52;12.27;;;;;;;;;;5092896;28;20020;-49
2022/03/10 09:13:27;;;;;;;30.50;12.10;;;;;;;;;;5092818;28;20027;-50
2022/03/10 09:15:53;;;;;;;24.10;11.77;;;;;;;;;;5091658;28;20111;-48
2022/03/10 09:18:19;;;;;;;25.30;11.35;;;;;;;;;;5092631;28;20494;-44
2022/03/10 09:20:45;;;;;;;32.88;13.30;;;;;;;;;;5091053;28;20024;-46
2022/03/10 09:23:11;;;;;;;24.67;11.68;;;;;;;;;;5085684;28;20096;-44
2022/03/10 09:25:38;;;;;;;29.92;12.15;;;;;;;;;;5092723;28;20035;-46
2022/03/10 09:28:04;;;;;;;20.20;11.35;;;;;;;;;;5092601;28;20059;-46
2022/03/10 09:30:30;;;;;;;25.00;11.68;;;;;;;;;;5092852;28;20027;-45
2022/03/10 09:32:57;;;;;;;26.75;11.93;;;;;;;;;;5092123;28;20047;-49
2022/03/10 09:35:24;;;;;;;28.00;11.73;;;;;;;;;;5092216;28;20039;-47
2022/03/10 09:37:50;;;;;;;27.90;11.90;;;;;;;;;;5084376;28;20028;-45
2022/03/10 09:40:16;;;;;;;26.90;12.77;;;;;;;;;;5079117;28;20104;-47
2022/03/10 09:42:43;;;;;;;26.33;11.38;;;;;;;;;;5092104;28;20055;-46
2022/03/10 09:45:09;;;;;;;31.23;12.52;;;;;;;;;;5092615;28;20030;-46
2022/03/10 09:47:40;;;;;;;29.50;12.35;;;;;;;;;;5090579;28;20051;-47
2022/03/10 09:50:07;;;;;;;23.98;12.00;;;;;;;;;;5081073;28;20024;-48
2022/03/10 09:52:34;;;;;;;24.02;11.60;;;;;;;;;;5084530;28;20043;-46
2022/03/10 09:55:00;;;;;;;22.48;12.10;;;;;;;;;;5086429;28;20062;-46
2022/03/10 09:57:26;;;;;;;28.45;12.55;;;;;;;;;;5089153;28;20143;-47
2022/03/10 09:59:53;;;;;;;23.65;11.65;;;;;;;;;;5089641;28;20538;-46
2022/03/10 10:02:19;;;;;;;25.13;12.27;;;;;;;;;;5085885;28;20115;-48
2022/03/10 10:04:48;;;;;;;25.38;11.40;;;;;;;;;;5091685;28;20111;-52
2022/03/10 10:07:14;;;;;;;28.58;11.85;;;;;;;;;;5085467;28;20361;-47
2022/03/10 10:09:41;;;;;;;23.05;10.20;;;;;;;;;;5092287;28;20029;-46
2022/03/10 10:12:07;;;;;;;18.42;8.60;;;;;;;;;;5088609;28;20008;-47
2022/03/10 10:14:37;;;;;;;17.15;9.82;;;;;;;;;;5092087;28;20387;-48
2022/03/10 10:17:03;;;;;;;24.63;10.43;;;;;;;;;;5087913;28;20043;-49
2022/03/10 10:19:32;;;;;;;21.52;9.80;;;;;;;;;;5080910;28;20024;-46
2022/03/10 10:22:12;;;;;;;16.13;8.43;;;;;;;;;;5088442;28;20382;-48
2022/03/10 10:24:38;;;;;;;19.75;8.70;;;;;;;;;;5079836;28;20785;-47
2022/03/10 10:27:17;;;;;;;16.15;8.05;;;;;;;;;;5077979;28;20028;-46
2022/03/10 10:29:54;;;;;;;16.42;7.88;;;;;;;;;;5091931;28;20028;-48
2022/03/10 10:32:27;;;;;;;15.60;7.25;;;;;;;;;;5085155;28;20842;-47
2022/03/10 10:35:02;;;;;;;15.68;7.10;;;;;;;;;;5088324;28;20028;-48
2022/03/10 10:37:28;;;;;;;14.02;6.70;;;;;;;;;;5091685;28;20053;-46
2022/03/10 10:39:56;;;;;;;16.35;6.88;;;;;;;;;;5091509;28;20111;-46
2022/03/10 10:42:25;;;;;;;14.95;7.63;;;;;;;;;;5084517;28;20063;-46
2022/03/10 10:44:51;;;;;;;14.50;7.28;;;;;;;;;;5090402;28;20031;-45
2022/03/10 10:47:17;;;;;;;18.17;8.63;;;;;;;;;;5062206;28;20032;-47
2022/03/10 10:49:43;;;;;;;14.02;7.35;;;;;;;;;;5070441;28;20035;-46
2022/03/10 10:52:12;;;;;;;15.48;6.88;;;;;;;;;;5064348;28;20480;-47
2022/03/10 10:54:38;;;;;;;13.50;6.88;;;;;;;;;;5063730;28;20507;-47
2022/03/10 10:57:09;;;;;;;11.93;6.63;;;;;;;;;;5064589;28;20033;-47
2022/03/10 10:59:35;;;;;;;13.95;6.25;;;;;;;;;;5061886;28;20033;-46
2022/03/10 11:02:12;;;;;;;13.10;6.28;;;;;;;;;;5069425;28;20032;-48
2022/03/10 11:04:42;;;;;;;15.07;7.35;;;;;;;;;;5091680;28;20079;-47
2022/03/10 11:07:09;;;;;;;13.88;6.88;;;;;;;;;;5088843;28;20024;-49
2022/03/10 11:09:35;;;;;;;14.90;7.45;;;;;;;;;;5091884;28;20028;-46
2022/03/10 11:12:01;;;;;;;15.68;7.28;;;;;;;;;;5086703;28;20361;-50
2022/03/10 11:14:27;;;;;;;19.08;8.07;;;;;;;;;;5080204;28;20382;-50
2022/03/10 11:16:55;;;;;;;18.10;8.40;;;;;;;;;;5091029;28;20042;-49
2022/03/10 11:19:25;;;;;;;17.02;8.57;;;;;;;;;;5084499;28;20058;-50
2022/03/10 11:21:57;;;;;;;18.50;8.43;;;;;;;;;;5091104;28;20031;-48
2022/03/10 11:24:39;;;;;;;15.30;7.85;;;;;;;;;;5084120;28;20199;-49
2022/03/10 11:27:16;;;;;;;16.60;8.20;;;;;;;;;;5093672;28;20024;-50
2022/03/10 11:29:45;;;;;;;17.23;8.60;;;;;;;;;;5088981;28;20047;-50
2022/03/10 11:32:11;;;;;;;16.08;7.85;;;;;;;;;;5077774;28;20500;-47
2022/03/10 11:34:46;;;;;;;16.23;8.38;;;;;;;;;;5089248;28;20023;-52
2022/03/10 11:37:12;;;;;;;15.60;8.35;;;;;;;;;;5091518;28;20115;-49
2022/03/10 11:39:54;;;;;;;15.25;7.63;;;;;;;;;;5100521;28;20038;-47
2022/03/10 11:42:32;;;;;;;14.30;7.20;;;;;;;;;;5099453;28;20024;-50
2022/03/10 11:45:10;;;;;;;13.60;7.32;;;;;;;;;;5095287;28;20036;-47
2022/03/10 11:47:37;;;;;;;15.75;7.25;;;;;;;;;;5088826;28;20456;-51
2022/03/10 11:50:24;;;;;;;15.25;7.32;;;;;;;;;;5077585;28;20029;-48
2022/03/10 11:52:57;;;;;;;15.90;7.50;;;;;;;;;;5084458;28;20040;-46
2022/03/10 11:55:24;;;;;;;11.88;5.30;;;;;;;;;;5093080;28;20090;-45
2022/03/10 11:57:53;;;;;;;12.85;7.72;;;;;;;;;;5094288;28;20024;-47
2022/03/10 12:00:19;;;;;;;11.25;6.20;;;;;;;;;;5094660;28;20054;-46
2022/03/10 12:02:45;;;;;;;12.52;6.80;;;;;;;;;;5090368;28;20020;-50
2022/03/10 12:05:12;;;;;;;10.82;5.97;;;;;;;;;;5093867;28;20059;-47
2022/03/10 12:07:41;;;;;;;13.18;6.82;;;;;;;;;;5084260;28;20020;-49
2022/03/10 12:10:12;;;;;;;12.77;6.22;;;;;;;;;;5088470;28;20116;-47
2022/03/10 12:12:39;;;;;;;12.00;6.20;;;;;;;;;;5091018;28;20028;-47
2022/03/10 12:15:29;;;;;;;10.10;5.95;;;;;;;;;;5092347;28;20475;-48
2022/03/10 12:17:55;;;;;;;10.15;5.75;;;;;;;;;;5093210;28;20044;-49
2022/03/10 12:20:25;;;;;;;11.30;5.43;;;;;;;;;;5100155;28;20020;-46
2022/03/10 12:23:01;;;;;;;11.25;6.50;;;;;;;;;;5093207;28;20384;-46
2022/03/10 12:25:27;;;;;;;10.63;5.80;;;;;;;;;;5103929;28;20024;-47
2022/03/10 12:27:56;;;;;;;13.57;6.53;;;;;;;;;;5096273;28;20028;-48
2022/03/10 12:30:24;;;;;;;9.93;6.00;;;;;;;;;;5095209;28;20032;-47
2022/03/10 12:32:52;;;;;;;10.20;5.88;;;;;;;;;;5102292;28;20032;-47
2022/03/10 12:35:20;;;;;;;10.32;5.57;;;;;;;;;;5090813;28;20475;-46
2022/03/10 12:37:47;;;;;;;11.98;5.32;;;;;;;;;;5091335;28;20024;-46
2022/03/10 12:40:17;;;;;;;12.43;6.32;;;;;;;;;;5093594;28;20058;-46
2022/03/10 12:42:44;;;;;;;7.82;5.13;;;;;;;;;;5092912;28;20024;-48
2022/03/10 12:45:10;;;;;;;9.82;5.78;;;;;;;;;;5091988;28;20089;-46
2022/03/10 12:47:38;;;;;;;9.63;5.53;;;;;;;;;;5093428;28;20464;-46
2022/03/10 12:50:04;;;;;;;9.07;5.20;;;;;;;;;;5096478;28;20120;-46
2022/03/10 12:52:31;;;;;;;8.55;4.85;;;;;;;;;;5084416;28;20496;-46
2022/03/10 12:54:58;;;;;;;9.32;5.07;;;;;;;;;;5085227;28;20024;-48
2022/03/10 12:57:24;;;;;;;10.88;5.00;;;;;;;;;;5074689;28;20036;-48
2022/03/10 12:59:49;;;;;;;9.75;5.72;;;;;;;;;;5092648;28;20039;-47
2022/03/10 13:02:19;;;;;;;9.88;5.20;;;;;;;;;;5089869;28;20027;-47
2022/03/10 13:04:57;;;;;;;7.72;4.65;;;;;;;;;;5089850;28;20015;-48
2022/03/10 13:07:30;;;;;;;8.48;5.32;;;;;;;;;;5090893;28;20021;-49
2022/03/10 13:09:57;;;;;;;12.13;6.28;;;;;;;;;;5092441;28;20421;-50
2022/03/10 13:12:30;;;;;;;10.70;5.20;;;;;;;;;;5091774;28;20020;-48
2022/03/10 13:14:57;;;;;;;10.70;5.75;;;;;;;;;;5092023;28;20031;-49
2022/03/10 13:17:33;;;;;;;8.57;5.57;;;;;;;;;;5084204;28;20075;-47
2022/03/10 13:19:59;;;;;;;9.27;4.95;;;;;;;;;;5092495;28;20020;-46
2022/03/10 13:22:25;;;;;;;10.00;5.68;;;;;;;;;;5087256;28;20035;-46
2022/03/10 13:24:52;;;;;;;7.88;4.90;;;;;;;;;;5092032;28;20024;-48
2022/03/10 13:27:22;;;;;;;8.30;5.25;;;;;;;;;;5092847;28;20064;-46
2022/03/10 13:29:48;;;;;;;12.40;6.63;;;;;;;;;;5078619;28;20021;-46
2022/03/10 13:32:16;;;;;;;8.95;6.03;;;;;;;;;;5077616;28;20044;-48
2022/03/10 13:34:42;;;;;;;11.38;6.43;;;;;;;;;;5083635;28;20101;-46
2022/03/10 13:37:08;;;;;;;9.70;5.95;;;;;;;;;;5083405;28;20027;-49
2022/03/10 13:39:36;;;;;;;11.00;6.07;;;;;;;;;;5091423;28;20099;-48
2022/03/10 13:42:02;;;;;;;10.82;6.53;;;;;;;;;;5090841;28;20024;-47
2022/03/10 13:44:28;;;;;;;10.40;6.20;;;;;;;;;;5091055;28;20516;-48
2022/03/10 13:47:07;;;;;;;10.32;6.13;;;;;;;;;;5086600;28;20479;-48
2022/03/10 13:49:42;;;;;;;11.50;6.90;;;;;;;;;;5088632;28;20030;-48
2022/03/10 13:52:15;;;;;;;11.57;6.35;;;;;;;;;;5081194;28;20056;-51
2022/03/10 13:54:48;;;;;;;10.65;6.78;;;;;;;;;;5094696;28;20103;-50
2022/03/10 13:57:14;;;;;;;;;;;;;;;;;;5077441;28;20028;-49
2022/03/10 13:59:40;;;;;;;10.98;6.75;;;;;;;;;;5090026;28;19915;-47
2022/03/10 14:02:17;;;;;;;11.23;7.05;;;;;;;;;;5091387;28;20032;-47
2022/03/10 14:04:43;;;;;;;10.18;6.05;;;;;;;;;;5083189;28;20027;-47
2022/03/10 14:07:09;;;;;;;10.95;6.03;;;;;;;;;;5084790;28;20395;-46
2022/03/10 14:09:40;;;;;;;15.38;6.53;;;;;;;;;;5084812;28;20025;-45
2022/03/10 14:12:16;;;;;;;10.43;6.00;;;;;;;;;;5085418;28;20118;-45
2022/03/10 14:14:43;;;;;;;10.77;6.25;;;;;;;;;;5084702;28;20034;-47
2022/03/10 14:17:09;;;;;;;9.75;5.80;;;;;;;;;;5096458;28;20021;-46
2022/03/10 14:19:36;;;;;;;10.63;5.97;;;;;;;;;;5088294;28;20036;-46
2022/03/10 14:22:03;;;;;;;10.77;6.03;;;;;;;;;;5086350;28;20032;-50
2022/03/10 14:24:36;;;;;;;7.45;5.35;;;;;;;;;;5092302;28;20063;-46
2022/03/10 14:27:09;;;;;;;10.45;5.78;;;;;;;;;;5086148;28;20032;-46
2022/03/10 14:29:42;;;;;;;9.45;6.22;;;;;;;;;;5091235;28;20036;-45
2022/03/10 14:32:08;;;;;;;;;;;;;;;;;;5079259;28;20024;-45